Dauntless Aviation
Airports North America United States Ohio
KHAO
HAO
HAO

BUTLER CO RGNL-HOGAN FIELD AIRPORT

HAMILTON, OH, USA

Airport Info
Suggest Updated Information for this Airport

Location

Latitude / Longitude: 39°21'49"N / 84°31'18"W
  39°21.825'N / 84°31.3167'W
  39.3638 / -84.5219
Elevation: 633.3 ft. (surveyed)
Variation: 05W (2000)
From city: 03 miles SE of HAMILTON, OH

Operations

Facility use: Open to the public
Sectional chart: CINCINNATI
Control tower: no
Boundary ARTCC: INDIANAPOLIS
Responsible ARTCC: INDIANAPOLIS
FSS: DAYTON [1-800-WX-BRIEF]
NOTAMs facility: HAO (NOTAM-D service available)
Segmented circle: no
Lights: SEE RMK
Beacon: CLEAR-GREEN (LIGHTED LAND AIRPORT)
Landing fee: no

Communications

UNICOM: 123.050
CTAF: 123.050

Nearby radio navigation aids

VOR radial/distance VOR name Freq Var
CVG 22oT/22.5 CINCINNATI VORTAC 117.30 04W
RID 148oT/27.7 RICHMOND VORTAC 110.60 03W
MXQ 263oT/33.7 MIDWEST VOR/DME 112.90 04W
DQN 188oT/39.6 DAYTON VOR/DME 114.50 01W
 
NDB name Hdg/Dist Freq Var ID
HAMILTON 103oT/2.4 260 04W HAO
HOOK FIELD 203oT/8.8 239 04W HKF
CINCINNATI-BLUE ASH 318oT/9.2 388 04W ISZ
MADEIRA 318oT/11.5 379 04W MDE
OXFORD 126oT/14.8 282 04W OXD
CINCINNATI 326oT/14.9 335 04W LUK
SPORTYS 320oT/22.4 245 04W PWF
BURLN 31oT/22.4 321 04W UR
CUBLA 271oT/30.0 299 04W HW
BATESVILLE 88oT/34.2 254 02W HLB
XENIA 233oT/34.6 395 03W XEN
AIRBO 258oT/37.2 407 04W IL

Services

Fuel available: 100LLA
Airframe service: MAJOR
Powerplant service: MAJOR
Bottled oxygen: LOW
Bulk oxygen: NONE

Runway Information

Runway 11/29

Dimensions: 5500 x 100 ft.
Surface: ASPHALT OR BITUMINOUS CONCRETE,GOOD CONDITION,NO SPECIAL SURFACE TREATMENT
Edge lights: MEDIUM
 
Runway 11
Runway 29
Latitude: 39-21-58.9958N 39-21-40.0730N
Longitude: 084-31-51.8192W 084-30-46.1758W
Elevation: 631.8 ft. 618.9 ft.
Traffic pattern: left left
Runway true heading: 110 290
Markings: nonprecision instrument, in fair condition precision instrument, in fair condition
Visual slope indicator: 4-LGT PAPI ON LEFT SIDE OF RUNWAY (3.50 degrees glide path) 4-LGT PAPI ON LEFT SIDE OF RUNWAY (3.00 degrees glide path)
Approach lights: 1,400 FOOT MEDIUM INTENSITY APPROACH LIGHTING SYSTEM
Runway end identifier lights: yes yes
Centerline lights: no no
Touchdown lights: no no
Instrument approach: ILS/DME
 

Operational Statistics

Annual operations: 61687
Air taxi: 12600
Local: 16537
Itinerant: 32550

Additional Remarks

  • THIS AIRPORT HAS BEEN SURVEYED BY THE NATIONAL GEODETIC SURVEY.
  • FOR CD CTC CINCINNATI APCH AT 859-372-6440.

Instrument Procedures

Effective Oct 08, 2020 to Nov 04, 2020

STARs (Standard Terminal Arrivals)

   BRUSH FOUR (PDF)
   BRUSH FOUR, CONT.1 (PDF)
   CINCE NINE (PDF)
   HARDU FIVE (PDF)
   HARDU FIVE, CONT.1 (PDF)
   HEDEE FOUR (PDF)
   HEDEE FOUR, CONT.1 (PDF)
   SHELBYVILLE SIX (PDF)
   SHELBYVILLE SIX, CONT.1 (PDF)

IAPs (Instrument Approach Procedures)

   ILS OR LOC RWY 29 (PDF)
   RNAV (GPS) RWY 11 (PDF)
   RNAV (GPS) RWY 29 (PDF)
   TAKEOFF MINIMUMS (PDF)
   ALTERNATE MINIMUMS (PDF)
 
    Legends & General Information
    Airport Diagram Legend
Topographic chart at:
Satellite photo at:
Airport distance calculator
From:
Weather Reports

METAR

KHAO

KHAO 251411Z AUTO 06006KT 10SM BKN027 OVC037 08/03 A3015 RMK AO2 RAE1355 P0000 T00780033
KMWO
11.6nm N
KMWO 251415Z AUTO 07008KT 10SM OVC043 07/04 A3015 RMK AO2 T00710043
KI67
13.9nm SW
KI67 251415Z AUTO 05005KT 10SM OVC028 07/04 A3014 RMK AO1
KI68
14.0nm NE
KI68 251415Z AUTO 06010KT 10SM DZ SCT027 OVC036 07/06 A3013 RMK AO1 T00700062
KLUK
16.6nm SE
KLUK 251353Z 04008KT 10SM BKN028 OVC035 08/05 A3014 RMK AO2 RAB31E46 SLP207 P0000 T00780050
KMGY
19.5nm N
KMGY 251353Z AUTO 05007KT 10SM OVC044 07/03 A3013 RMK AO2 RAE10 SLP206 P0000 T00720028

TAF

KLUK
16.6nm SE
KLUK 251122Z 2512/2612 04008KT P6SM VCSH BKN025 OVC040 TEMPO 2515/2517 BKN018 OVC025 FM252300 04005KT P6SM OVC018 FM260700 VRB02KT P6SM OVC012
KCVG
20.0nm S
KCVG 251122Z 2512/2618 05011KT P6SM VCSH BKN022 OVC040 TEMPO 2514/2517 BKN015 OVC022 FM252100 05007KT P6SM OVC018 FM260700 02003KT P6SM OVC015 FM261100 35004KT P6SM OVC010
KILN
33.8nm NE
KILN 251122Z 2512/2612 05009KT P6SM VCSH BKN025 OVC040 FM260200 05005KT P6SM BKN018 OVC022 FM260700 01003KT P6SM OVC015
KDAY
35.2nm N
KDAY 251122Z 2512/2612 05009KT P6SM VCSH OVC060 FM251400 06010KT P6SM OVC035 FM252300 05007KT P6SM OVC028 FM260700 01004KT P6SM OVC022
KFFO
35.4nm N
TAF KFFO 251100Z 2511/2617 06009KT 9999 OVC060 510051 520303 QNH3012INS BECMG 2514/2515 06010G15KT 9999 OVC040 520303 QNH3005INS BECMG 2522/2523 07007KT 9999 BKN030 510303 QNH3006INS BECMG 2604/2605 VRB06KT 8000 -RA BR SCT007 OVC012 QNH3008INS BECMG 2611/2612 34006KT 9999 NSW OVC015 QNH3011INS TX09/2519Z TN06/2511Z
Safelog

 

Dauntless Aviation

© 2007-2020 Dauntless Aviation, all rights reserved
Information provided via PilotNav comes from a variety of official and unofficial data sources. As errors are possible, do not use PilotNav for primary flight planning purposes. Verify any information that you receive via PilotNav with current and canonical charts and other official documents. The material in this database is subject to database copyrights held by Dauntless Aviation and may not be copied without the express permission of Dauntless Aviation - licenses for use of part of all of this data are available for purchase; enquire via the Dauntless Aviation helpdesk. A number of mechanisms and markers exist in the database to protect against and identify infringement / copyright. Automated queries against this website are strictly prohibited, and all activity is logged and analyzed.